Time;durP1;ratioP1;P1;durP2;ratioP2;P2;SDS_P1;SDS_P2;PMS_P1;PMS_P2;Temp;Humidity;BMP_temperature;BMP_pressure;BME280_temperature;BME280_humidity;BME280_pressure;Samples;Min_cycle;Max_cycle;Signal;HPM_P1;HPM_P2
2023/06/10 00:02:17;;;;;;;7.78;5.90;;;;;;;;;;5031413;28;20038;-80
2023/06/10 00:04:43;;;;;;;8.68;5.85;;;;;;;;;;5037044;28;20036;-80
2023/06/10 00:07:09;;;;;;;9.68;5.80;;;;;;;;;;5040296;28;20045;-83
2023/06/10 00:09:36;;;;;;;8.80;5.97;;;;;;;;;;5038496;28;20040;-83
2023/06/10 00:12:03;;;;;;;6.75;5.38;;;;;;;;;;5041078;28;20037;-81
2023/06/10 00:14:32;;;;;;;10.95;5.57;;;;;;;;;;5038374;28;20265;-84
2023/06/10 00:16:59;;;;;;;7.70;6.07;;;;;;;;;;5036486;28;20025;-83
2023/06/10 00:19:25;;;;;;;10.75;6.10;;;;;;;;;;5056504;28;20061;-82
2023/06/10 00:21:52;;;;;;;7.40;6.10;;;;;;;;;;5038686;28;20391;-82
2023/06/10 00:24:18;;;;;;;6.47;5.70;;;;;;;;;;5036575;28;20044;-84
2023/06/10 00:26:44;;;;;;;8.65;5.75;;;;;;;;;;5053618;28;20048;-82
2023/06/10 00:29:11;;;;;;;8.73;5.90;;;;;;;;;;5037000;28;20060;-81
2023/06/10 00:31:40;;;;;;;8.32;6.00;;;;;;;;;;5037884;28;20030;-85
2023/06/10 00:34:06;;;;;;;7.80;6.50;;;;;;;;;;5038997;28;20025;-85
2023/06/10 00:36:32;;;;;;;15.27;6.22;;;;;;;;;;5038568;28;20084;-83
2023/06/10 00:38:58;;;;;;;6.60;5.57;;;;;;;;;;5038811;28;20085;-82
2023/06/10 00:41:26;;;;;;;7.22;5.93;;;;;;;;;;5028506;28;20025;-82
2023/06/10 00:43:52;;;;;;;7.40;6.03;;;;;;;;;;5055220;28;20026;-81
2023/06/10 00:46:18;;;;;;;8.88;6.13;;;;;;;;;;5033189;28;20424;-83
2023/06/10 00:48:45;;;;;;;7.97;6.30;;;;;;;;;;5034337;28;20025;-83
2023/06/10 00:51:11;;;;;;;9.25;5.88;;;;;;;;;;5034805;28;20045;-81
2023/06/10 00:53:39;;;;;;;10.20;6.82;;;;;;;;;;5032930;28;20040;-82
2023/06/10 00:56:05;;;;;;;8.80;6.22;;;;;;;;;;5033935;28;20096;-81
2023/06/10 00:58:32;;;;;;;12.35;6.85;;;;;;;;;;5036253;28;20029;-81
2023/06/10 01:00:57;;;;;;;9.18;7.07;;;;;;;;;;5033920;28;20112;-82
2023/06/10 01:03:24;;;;;;;9.00;7.03;;;;;;;;;;5037388;28;20102;-80
2023/06/10 01:05:55;;;;;;;8.60;6.72;;;;;;;;;;5051322;28;20033;-82
2023/06/10 01:08:30;;;;;;;12.07;7.80;;;;;;;;;;5034126;28;20053;-81
2023/06/10 01:11:01;;;;;;;9.93;7.50;;;;;;;;;;5034783;28;21026;-83
2023/06/10 01:13:31;;;;;;;8.27;6.68;;;;;;;;;;5032260;28;20049;-84
2023/06/10 01:15:57;;;;;;;9.52;6.88;;;;;;;;;;5048710;28;20021;-83
2023/06/10 01:18:23;;;;;;;8.70;6.78;;;;;;;;;;5036920;28;20033;-83
2023/06/10 01:20:49;;;;;;;9.95;7.28;;;;;;;;;;5031626;28;20672;-84
2023/06/10 01:23:16;;;;;;;10.80;7.15;;;;;;;;;;5039757;28;20502;-82
2023/06/10 01:25:47;;;;;;;8.32;6.70;;;;;;;;;;5035917;28;20060;-83
2023/06/10 01:28:15;;;;;;;8.77;6.95;;;;;;;;;;5038909;28;20040;-83
2023/06/10 01:30:57;;;;;;;8.55;6.75;;;;;;;;;;5033821;28;20030;-82
2023/06/10 01:33:28;;;;;;;10.38;7.07;;;;;;;;;;5030730;28;20026;-80
2023/06/10 01:35:54;;;;;;;8.85;6.85;;;;;;;;;;5037426;28;20018;-81
2023/06/10 01:38:21;;;;;;;10.90;7.70;;;;;;;;;;5034308;28;20018;-80
2023/06/10 01:40:48;;;;;;;9.57;6.63;;;;;;;;;;5034866;28;20642;-85
2023/06/10 01:43:14;;;;;;;11.27;7.28;;;;;;;;;;5035421;28;20033;-81
2023/06/10 01:45:40;;;;;;;8.65;6.90;;;;;;;;;;5037354;28;20033;-82
2023/06/10 01:48:06;;;;;;;9.85;6.72;;;;;;;;;;5039251;28;20036;-83
2023/06/10 01:50:32;;;;;;;11.82;8.05;;;;;;;;;;5027216;28;20038;-80
2023/06/10 01:52:58;;;;;;;9.68;7.68;;;;;;;;;;5047090;28;20032;-87
2023/06/10 01:55:24;;;;;;;9.57;6.88;;;;;;;;;;5035018;28;20031;-83
2023/06/10 01:57:51;;;;;;;9.98;7.28;;;;;;;;;;5035215;28;20519;-83
2023/06/10 02:00:17;;;;;;;13.85;8.02;;;;;;;;;;5022932;28;20056;-82
2023/06/10 02:02:43;;;;;;;15.10;8.13;;;;;;;;;;5038740;28;20097;-86
2023/06/10 02:05:09;;;;;;;10.02;7.43;;;;;;;;;;5038421;28;20061;-83
2023/06/10 02:07:35;;;;;;;9.85;7.90;;;;;;;;;;5101624;22;20051;-80
2023/06/10 02:10:01;;;;;;;9.85;7.80;;;;;;;;;;5051849;28;20073;-82
2023/06/10 02:12:29;;;;;;;9.95;7.78;;;;;;;;;;5050142;28;20045;-81
2023/06/10 02:14:55;;;;;;;8.82;7.80;;;;;;;;;;5050273;28;20028;-81
2023/06/10 02:17:28;;;;;;;9.55;7.90;;;;;;;;;;5048801;28;20093;-81
2023/06/10 02:19:54;;;;;;;11.52;8.18;;;;;;;;;;5040732;28;20033;-82
2023/06/10 02:22:29;;;;;;;12.55;8.63;;;;;;;;;;5041993;28;20041;-82
2023/06/10 02:24:55;;;;;;;11.68;8.30;;;;;;;;;;5047584;28;20089;-83
2023/06/10 02:27:21;;;;;;;11.45;8.23;;;;;;;;;;5040750;28;20038;-82
2023/06/10 02:29:50;;;;;;;10.85;8.50;;;;;;;;;;5040012;28;20081;-80
2023/06/10 02:32:19;;;;;;;11.73;8.47;;;;;;;;;;5038197;28;20037;-80
2023/06/10 02:34:45;;;;;;;11.98;8.23;;;;;;;;;;5037250;28;20021;-80
2023/06/10 02:37:11;;;;;;;12.75;8.70;;;;;;;;;;5035374;28;20026;-79
2023/06/10 02:39:37;;;;;;;11.82;8.30;;;;;;;;;;5035620;28;20129;-79
2023/06/10 02:42:05;;;;;;;12.32;8.52;;;;;;;;;;5035861;28;20033;-82
2023/06/10 02:44:31;;;;;;;10.80;7.82;;;;;;;;;;5033039;28;20030;-83
2023/06/10 02:46:57;;;;;;;9.60;7.85;;;;;;;;;;5039904;28;20041;-80
2023/06/10 02:49:23;;;;;;;10.85;8.13;;;;;;;;;;5041572;28;20033;-79
2023/06/10 02:51:53;;;;;;;10.35;7.97;;;;;;;;;;5031107;28;20564;-80
2023/06/10 02:54:19;;;;;;;9.88;7.82;;;;;;;;;;5035280;28;20026;-81
2023/06/10 02:56:47;;;;;;;10.40;7.50;;;;;;;;;;5032215;28;20029;-81
2023/06/10 02:59:15;;;;;;;14.93;7.82;;;;;;;;;;5037150;28;20515;-81
2023/06/10 03:01:41;;;;;;;11.27;7.50;;;;;;;;;;5041221;28;20025;-80
2023/06/10 03:04:08;;;;;;;9.85;6.93;;;;;;;;;;5039283;28;20033;-82
2023/06/10 03:06:35;;;;;;;10.30;7.72;;;;;;;;;;5056081;28;20040;-80
2023/06/10 03:09:01;;;;;;;12.32;7.72;;;;;;;;;;5042217;28;20056;-81
2023/06/10 03:11:27;;;;;;;9.25;7.45;;;;;;;;;;5038358;28;20029;-80
2023/06/10 03:13:56;;;;;;;9.75;7.60;;;;;;;;;;5039923;28;20021;-81
2023/06/10 03:16:22;;;;;;;9.15;7.70;;;;;;;;;;5043757;28;20113;-81
2023/06/10 03:18:49;;;;;;;10.18;7.97;;;;;;;;;;5039587;28;20063;-80
2023/06/10 03:21:15;;;;;;;10.07;8.18;;;;;;;;;;5041224;28;20386;-80
2023/06/10 03:23:41;;;;;;;9.85;7.38;;;;;;;;;;5040182;28;20025;-80
2023/06/10 03:26:08;;;;;;;11.18;7.90;;;;;;;;;;5046147;28;20051;-82
2023/06/10 03:28:34;;;;;;;11.30;7.40;;;;;;;;;;5045330;28;20029;-81
2023/06/10 03:31:01;;;;;;;10.95;8.50;;;;;;;;;;5036987;28;20025;-81
2023/06/10 03:33:31;;;;;;;11.48;8.15;;;;;;;;;;5042476;28;20025;-79
2023/06/10 03:35:57;;;;;;;10.63;8.40;;;;;;;;;;5042431;28;20025;-82
2023/06/10 03:38:32;;;;;;;8.88;7.60;;;;;;;;;;5039757;28;20045;-81
2023/06/10 03:40:58;;;;;;;9.02;7.43;;;;;;;;;;5044774;28;20060;-80
2023/06/10 03:43:24;;;;;;;9.98;8.02;;;;;;;;;;5039568;28;20099;-79
2023/06/10 03:45:50;;;;;;;14.75;8.23;;;;;;;;;;5048774;28;20033;-81
2023/06/10 03:48:16;;;;;;;9.15;7.47;;;;;;;;;;5031979;28;20108;-81
2023/06/10 03:50:43;;;;;;;10.50;7.93;;;;;;;;;;5034032;28;20071;-79
2023/06/10 03:53:09;;;;;;;10.10;7.90;;;;;;;;;;5040898;28;20026;-82
2023/06/10 03:55:36;;;;;;;10.18;8.48;;;;;;;;;;5037838;28;20026;-81
2023/06/10 03:58:02;;;;;;;10.30;7.70;;;;;;;;;;5041703;28;20537;-82
2023/06/10 04:00:28;;;;;;;9.05;7.57;;;;;;;;;;5043969;28;20029;-81
2023/06/10 04:02:57;;;;;;;11.27;7.55;;;;;;;;;;5043890;28;20037;-80
2023/06/10 04:05:24;;;;;;;10.30;7.40;;;;;;;;;;5034777;28;20049;-81
2023/06/10 04:07:50;;;;;;;9.73;7.13;;;;;;;;;;5035859;28;20037;-79
2023/06/10 04:10:20;;;;;;;11.02;7.38;;;;;;;;;;5052543;28;20190;-81
2023/06/10 04:12:46;;;;;;;9.68;7.53;;;;;;;;;;5042855;28;20028;-81
2023/06/10 04:15:13;;;;;;;8.68;7.53;;;;;;;;;;5052272;28;20025;-81
2023/06/10 04:17:39;;;;;;;10.68;7.65;;;;;;;;;;5037487;28;20030;-80
2023/06/10 04:20:07;;;;;;;9.13;7.63;;;;;;;;;;5039377;28;20044;-79
2023/06/10 04:22:36;;;;;;;10.18;8.00;;;;;;;;;;5039276;28;20507;-80
2023/06/10 04:25:03;;;;;;;10.32;7.70;;;;;;;;;;5029531;28;20107;-80
2023/06/10 04:27:30;;;;;;;10.00;7.60;;;;;;;;;;5035851;28;20048;-81
2023/06/10 04:30:00;;;;;;;10.48;8.13;;;;;;;;;;5024851;28;20063;-82
2023/06/10 04:32:26;;;;;;;11.90;8.43;;;;;;;;;;5051397;28;20022;-80
2023/06/10 04:34:52;;;;;;;9.80;8.23;;;;;;;;;;5044574;28;20040;-83
2023/06/10 04:37:18;;;;;;;11.75;8.27;;;;;;;;;;5051858;28;20025;-82
2023/06/10 04:39:44;;;;;;;12.45;8.82;;;;;;;;;;5047174;28;20115;-81
2023/06/10 04:42:17;;;;;;;11.07;8.38;;;;;;;;;;5041713;28;20029;-81
2023/06/10 04:44:43;;;;;;;12.88;8.43;;;;;;;;;;5049451;28;20042;-80
2023/06/10 04:47:09;;;;;;;9.65;8.50;;;;;;;;;;5039572;28;20037;-81
2023/06/10 04:49:35;;;;;;;12.32;8.40;;;;;;;;;;5034295;28;20043;-79
2023/06/10 04:52:04;;;;;;;11.25;8.43;;;;;;;;;;5041164;28;20040;-81
2023/06/10 04:54:30;;;;;;;10.52;8.73;;;;;;;;;;5035103;28;20136;-82
2023/06/10 04:56:59;;;;;;;10.77;8.68;;;;;;;;;;5044554;28;20017;-81
2023/06/10 04:59:25;;;;;;;13.20;8.07;;;;;;;;;;5038175;28;20044;-82
2023/06/10 05:01:55;;;;;;;10.75;7.70;;;;;;;;;;5044017;28;20041;-83
2023/06/10 05:04:21;;;;;;;10.68;8.32;;;;;;;;;;5039391;28;20033;-81
2023/06/10 05:06:47;;;;;;;9.60;7.57;;;;;;;;;;5044928;28;20047;-82
2023/06/10 05:09:13;;;;;;;9.38;7.55;;;;;;;;;;5062440;28;20034;-82
2023/06/10 05:11:49;;;;;;;10.00;7.38;;;;;;;;;;5044644;28;20064;-81
2023/06/10 05:14:21;;;;;;;9.40;6.95;;;;;;;;;;5035943;28;20089;-82
2023/06/10 05:16:48;;;;;;;8.30;6.85;;;;;;;;;;5038518;28;20029;-83
2023/06/10 05:19:16;;;;;;;9.98;7.15;;;;;;;;;;5044379;28;20020;-81
2023/06/10 05:21:42;;;;;;;9.32;6.90;;;;;;;;;;5043771;28;20483;-85
2023/06/10 05:24:08;;;;;;;8.25;6.70;;;;;;;;;;5042891;28;20025;-81
2023/06/10 05:26:37;;;;;;;8.07;6.20;;;;;;;;;;5046499;28;20029;-80
2023/06/10 05:29:03;;;;;;;7.50;6.37;;;;;;;;;;5035107;28;20024;-81
2023/06/10 05:31:30;;;;;;;7.30;6.22;;;;;;;;;;5046184;28;20092;-81
2023/06/10 05:33:56;;;;;;;7.55;6.22;;;;;;;;;;5050883;28;20022;-82
2023/06/10 05:36:50;;;;;;;8.70;6.10;;;;;;;;;;5045611;28;20037;-80
2023/06/10 05:39:17;;;;;;;9.27;5.95;;;;;;;;;;5054342;28;20043;-81
2023/06/10 05:41:43;;;;;;;7.35;5.93;;;;;;;;;;5046223;28;20032;-82
2023/06/10 05:44:12;;;;;;;8.95;6.18;;;;;;;;;;5044207;28;20021;-83
2023/06/10 05:46:40;;;;;;;8.57;6.10;;;;;;;;;;5051947;28;20048;-81
2023/06/10 05:49:06;;;;;;;9.63;6.00;;;;;;;;;;5052538;28;20025;-82
2023/06/10 05:51:33;;;;;;;8.90;5.97;;;;;;;;;;5045003;28;20025;-81
2023/06/10 05:54:02;;;;;;;9.23;5.82;;;;;;;;;;5048469;28;20071;-81
2023/06/10 05:56:30;;;;;;;8.68;6.10;;;;;;;;;;5043878;28;20033;-82
2023/06/10 05:58:56;;;;;;;8.50;6.13;;;;;;;;;;5046221;28;20032;-81
2023/06/10 06:01:25;;;;;;;7.20;5.80;;;;;;;;;;5047339;28;20049;-80
2023/06/10 06:03:51;;;;;;;7.07;5.68;;;;;;;;;;5042185;28;20037;-81
2023/06/10 06:06:24;;;;;;;7.57;5.85;;;;;;;;;;5045259;28;20040;-82
2023/06/10 06:08:50;;;;;;;7.85;5.90;;;;;;;;;;5047683;28;20048;-83
2023/06/10 06:11:16;;;;;;;7.78;6.05;;;;;;;;;;5049485;28;20032;-81
2023/06/10 06:13:42;;;;;;;11.45;6.30;;;;;;;;;;5048575;28;20013;-82
2023/06/10 06:16:08;;;;;;;7.57;5.95;;;;;;;;;;5045368;28;20022;-83
2023/06/10 06:18:37;;;;;;;10.45;6.15;;;;;;;;;;5046609;28;20055;-80
2023/06/10 06:21:03;;;;;;;9.40;6.07;;;;;;;;;;5044819;28;20025;-81
2023/06/10 06:23:30;;;;;;;7.60;5.80;;;;;;;;;;5052691;28;20037;-82
2023/06/10 06:25:56;;;;;;;9.50;5.88;;;;;;;;;;5042552;28;20093;-81
2023/06/10 06:28:22;;;;;;;6.88;5.85;;;;;;;;;;5037532;28;20038;-82
2023/06/10 06:30:48;;;;;;;8.55;6.10;;;;;;;;;;5042059;28;20037;-83
2023/06/10 06:33:20;;;;;;;10.32;6.22;;;;;;;;;;5046681;28;20025;-82
2023/06/10 06:35:46;;;;;;;9.15;5.93;;;;;;;;;;5026542;28;20038;-82
2023/06/10 06:38:12;;;;;;;6.68;5.97;;;;;;;;;;5047904;28;20105;-81
2023/06/10 06:40:38;;;;;;;7.70;5.82;;;;;;;;;;5048630;28;20044;-81
2023/06/10 06:43:07;;;;;;;10.07;6.00;;;;;;;;;;5058824;28;20057;-83
2023/06/10 06:45:33;;;;;;;7.18;6.05;;;;;;;;;;5056481;28;20010;-82
2023/06/10 06:48:03;;;;;;;7.13;5.95;;;;;;;;;;5054980;28;20421;-82
2023/06/10 06:50:32;;;;;;;6.40;5.68;;;;;;;;;;5060945;28;20025;-79
2023/06/10 06:52:58;;;;;;;11.97;5.80;;;;;;;;;;5056056;28;20037;-84
2023/06/10 06:55:27;;;;;;;16.63;5.88;;;;;;;;;;5069230;28;20265;-82
2023/06/10 06:57:56;;;;;;;6.30;5.30;;;;;;;;;;5054674;28;20013;-83
2023/06/10 07:00:23;;;;;;;5.95;5.10;;;;;;;;;;5057252;28;20093;-83
2023/06/10 07:02:49;;;;;;;6.63;5.30;;;;;;;;;;5057769;28;20013;-82
2023/06/10 07:05:15;;;;;;;8.15;5.38;;;;;;;;;;5052997;28;20030;-79
2023/06/10 07:07:44;;;;;;;8.63;6.00;;;;;;;;;;5040202;28;20041;-79
2023/06/10 07:10:10;;;;;;;5.93;5.20;;;;;;;;;;5067788;28;20071;-81
2023/06/10 07:12:39;;;;;;;6.47;5.18;;;;;;;;;;5045686;28;20036;-84
2023/06/10 07:15:08;;;;;;;8.57;4.70;;;;;;;;;;5034517;28;20030;-80
2023/06/10 07:17:35;;;;;;;6.53;5.03;;;;;;;;;;5033287;28;20048;-81
2023/06/10 07:20:02;;;;;;;6.05;5.05;;;;;;;;;;5040594;28;20117;-81
2023/06/10 07:22:35;;;;;;;6.78;4.88;;;;;;;;;;5037503;28;20030;-81
2023/06/10 07:25:01;;;;;;;6.55;5.28;;;;;;;;;;5046883;28;20034;-80
2023/06/10 07:27:28;;;;;;;6.68;5.45;;;;;;;;;;5032305;28;20029;-80
2023/06/10 07:29:54;;;;;;;6.47;4.88;;;;;;;;;;5040707;28;20159;-80
2023/06/10 07:32:22;;;;;;;5.93;4.78;;;;;;;;;;5038332;28;20044;-80
2023/06/10 07:34:50;;;;;;;6.53;4.55;;;;;;;;;;5035392;28;20071;-81
2023/06/10 07:37:19;;;;;;;5.90;4.63;;;;;;;;;;5026636;28;20057;-81
2023/06/10 07:39:45;;;;;;;8.82;5.05;;;;;;;;;;5041485;28;20029;-79
2023/06/10 07:42:11;;;;;;;5.80;4.75;;;;;;;;;;5044093;28;20033;-81
2023/06/10 07:44:38;;;;;;;5.35;4.80;;;;;;;;;;5046233;28;20026;-80
2023/06/10 07:47:04;;;;;;;7.20;5.03;;;;;;;;;;5042678;28;20477;-80
2023/06/10 07:49:45;;;;;;;6.43;4.50;;;;;;;;;;5040291;28;20056;-83
2023/06/10 07:52:11;;;;;;;6.25;4.63;;;;;;;;;;5047492;28;20036;-83
2023/06/10 07:54:42;;;;;;;7.70;4.55;;;;;;;;;;5031904;28;20064;-81
2023/06/10 07:57:20;;;;;;;6.82;4.43;;;;;;;;;;5034832;28;20502;-81
2023/06/10 07:59:46;;;;;;;6.28;4.32;;;;;;;;;;5024110;28;20040;-80
2023/06/10 08:02:15;;;;;;;6.22;4.20;;;;;;;;;;5041911;28;20056;-80
2023/06/10 08:04:41;;;;;;;6.97;5.10;;;;;;;;;;5038851;28;20408;-80
2023/06/10 08:07:10;;;;;;;7.30;4.93;;;;;;;;;;5035172;28;20037;-80
2023/06/10 08:09:38;;;;;;;5.30;4.22;;;;;;;;;;5040602;28;20029;-80
2023/06/10 08:12:05;;;;;;;5.50;4.75;;;;;;;;;;5044295;28;20021;-81
2023/06/10 08:14:31;;;;;;;6.45;4.70;;;;;;;;;;5041307;28;20025;-80
2023/06/10 08:16:57;;;;;;;6.47;4.45;;;;;;;;;;5036377;28;20022;-80
2023/06/10 08:19:30;;;;;;;6.75;4.68;;;;;;;;;;5030217;28;20037;-81
2023/06/10 08:21:56;;;;;;;7.82;4.78;;;;;;;;;;5031196;28;20029;-80
2023/06/10 08:24:22;;;;;;;6.13;4.68;;;;;;;;;;5045223;28;20513;-81
2023/06/10 08:26:49;;;;;;;5.57;4.30;;;;;;;;;;5031970;28;20160;-81
2023/06/10 08:29:16;;;;;;;5.13;4.30;;;;;;;;;;5033490;28;20489;-79
2023/06/10 08:31:45;;;;;;;6.43;4.63;;;;;;;;;;5033381;28;20104;-80
2023/06/10 08:34:13;;;;;;;5.23;4.20;;;;;;;;;;5033829;28;20029;-80
2023/06/10 08:36:39;;;;;;;6.10;4.72;;;;;;;;;;5046403;28;20526;-80
2023/06/10 08:39:05;;;;;;;5.90;4.57;;;;;;;;;;5032499;28;20062;-83
2023/06/10 08:41:38;;;;;;;5.63;4.72;;;;;;;;;;5034551;28;20045;-81
2023/06/10 08:44:09;;;;;;;6.93;5.07;;;;;;;;;;5038454;28;20087;-81
2023/06/10 08:46:39;;;;;;;5.97;4.40;;;;;;;;;;5037604;28;20088;-81
2023/06/10 08:49:07;;;;;;;5.80;4.82;;;;;;;;;;5035382;28;20033;-82
2023/06/10 08:51:36;;;;;;;5.05;4.15;;;;;;;;;;5051685;28;20056;-80
2023/06/10 08:54:04;;;;;;;7.30;4.63;;;;;;;;;;5028666;28;20052;-81
2023/06/10 08:56:33;;;;;;;5.95;4.35;;;;;;;;;;5048126;28;20076;-82
2023/06/10 08:59:00;;;;;;;5.28;4.32;;;;;;;;;;5043723;28;20523;-81
2023/06/10 09:01:26;;;;;;;6.13;4.80;;;;;;;;;;5038472;28;20115;-80
2023/06/10 09:03:55;;;;;;;5.90;4.50;;;;;;;;;;5031355;28;20044;-82
2023/06/10 09:06:22;;;;;;;5.87;4.33;;;;;;;;;;5042087;28;20025;-80
2023/06/10 09:08:48;;;;;;;6.88;4.18;;;;;;;;;;5033114;28;20025;-81
2023/06/10 09:11:15;;;;;;;6.53;4.15;;;;;;;;;;5032864;28;20029;-81
2023/06/10 09:13:42;;;;;;;5.40;3.92;;;;;;;;;;5043961;28;20033;-80
2023/06/10 09:16:12;;;;;;;4.63;3.53;;;;;;;;;;5027315;28;20090;-80
2023/06/10 09:18:39;;;;;;;8.80;3.78;;;;;;;;;;5036667;28;20068;-80
2023/06/10 16:20:54;;;;;;;8.75;3.75;;;;;;;;;;5067150;28;20049;-84
2023/06/10 16:23:20;;;;;;;5.60;3.80;;;;;;;;;;5067231;28;20025;-88
2023/06/10 16:25:47;;;;;;;6.10;3.70;;;;;;;;;;5082907;28;20121;-87
2023/06/10 16:28:13;;;;;;;6.82;3.95;;;;;;;;;;5066890;28;20028;-84
2023/06/10 16:30:39;;;;;;;5.28;4.20;;;;;;;;;;5065386;28;20407;-87
2023/06/10 16:33:05;;;;;;;5.50;3.90;;;;;;;;;;5072996;28;20462;-86
2023/06/10 16:35:31;;;;;;;4.90;3.50;;;;;;;;;;5072959;28;20028;-87
2023/06/10 16:37:58;;;;;;;5.25;3.67;;;;;;;;;;5072113;28;20017;-90
2023/06/10 16:40:25;;;;;;;4.18;3.75;;;;;;;;;;5080499;28;20021;-88
2023/06/10 16:42:53;;;;;;;5.70;3.90;;;;;;;;;;5084918;27;20043;-88
2023/06/10 16:45:20;;;;;;;5.38;4.20;;;;;;;;;;5099337;27;20025;-86
2023/06/10 16:47:46;;;;;;;5.85;4.05;;;;;;;;;;5096622;28;20036;-87
2023/06/10 16:50:34;;;;;;;7.63;3.88;;;30.00;61.90;;;;;;5101306;27;20028;-85
2023/06/10 16:53:01;;;;;;;4.30;3.70;;;;;;;;;;5087167;28;20020;-88
2023/06/10 16:55:27;;;;;;;7.00;3.88;;;;;;;;;;5087588;28;20113;-87
2023/06/10 16:57:53;;;;;;;4.47;3.45;;;;;;;;;;5090156;27;20043;-86
2023/06/10 17:04:04;;;;;;;4.57;3.95;;;30.50;61.60;;;;;;5047140;28;20055;-90
2023/06/10 17:06:30;;;;;;;9.63;4.07;;;;;;;;;;5042278;28;20025;-89
2023/06/10 17:08:56;;;;;;;6.28;4.05;;;;;;;;;;5039425;28;20056;-91
2023/06/10 17:16:36;;;;;;;4.72;3.78;;;;;;;;;;5040049;22;20065;-84
2023/06/10 17:19:02;;;;;;;7.00;3.63;;;;;;;;;;5021094;28;20034;-84
2023/06/10 17:21:28;;;;;;;5.40;3.95;;;;;;;;;;5009612;28;20037;-85
2023/06/10 17:23:54;;;;;;;5.22;4.50;;;;;;;;;;5025809;28;20451;-84
2023/06/10 17:26:21;;;;;;;6.72;4.63;;;;;;;;;;5007054;28;20032;-84
2023/06/10 17:28:47;;;;;;;4.93;3.80;;;;;;;;;;5029699;28;20056;-86
2023/06/10 17:31:14;;;;;;;4.80;3.92;;;;;;;;;;5025349;28;20029;-84
2023/06/10 17:33:40;;;;;;;6.63;4.60;;;;;;;;;;5007167;28;20083;-87
2023/06/10 17:36:06;;;;;;;3.90;3.50;;;;;;;;;;5026398;28;20506;-87
2023/06/10 17:38:32;;;;;;;4.47;3.72;;;;;;;;;;5004416;28;20021;-86
2023/06/10 17:40:58;;;;;;;5.45;4.40;;;;;;;;;;5023553;28;20421;-86
2023/06/10 17:43:25;;;;;;;6.53;4.18;;;;;;;;;;5004243;28;20447;-85
2023/06/10 17:45:51;;;;;;;5.05;4.10;;;;;;;;;;5025897;28;20022;-87
2023/06/10 17:48:17;;;;;;;4.20;3.78;;;;;;;;;;5019123;28;20041;-86
2023/06/10 17:50:43;;;;;;;5.22;3.70;;;;;;;;;;5022759;28;20029;-86
2023/06/10 17:53:10;;;;;;;6.97;4.22;;;;;;;;;;4988248;28;20018;-83
2023/06/10 17:55:36;;;;;;;5.75;4.05;;;;;;;;;;5034771;28;20024;-85
2023/06/10 17:58:03;;;;;;;6.38;4.13;;;;;;;;;;5028205;28;20148;-84
2023/06/10 18:00:32;;;;;;;4.75;3.95;;;;;;;;;;5006627;28;20037;-85
2023/06/10 18:02:58;;;;;;;4.22;3.33;;;;;;;;;;5012745;28;20030;-84
2023/06/10 18:05:24;;;;;;;5.97;3.63;;;;;;;;;;5029691;28;20044;-85
2023/06/10 18:07:51;;;;;;;7.00;3.83;;;;;;;;;;5029913;28;20030;-86
2023/06/10 18:10:17;;;;;;;7.15;4.38;;;;;;;;;;5020752;28;20547;-84
2023/06/10 18:12:43;;;;;;;5.72;4.60;;;;;;;;;;5016021;28;20028;-87
2023/06/10 18:15:09;;;;;;;8.65;5.57;;;;;;;;;;5026113;28;20057;-86
2023/06/10 18:17:35;;;;;;;5.82;4.20;;;;;;;;;;5010638;28;20113;-85
2023/06/10 18:20:02;;;;;;;5.60;4.05;;;;;;;;;;5007228;28;20413;-84
2023/06/10 18:22:28;;;;;;;5.65;4.22;;;;;;;;;;5027719;28;20033;-85
2023/06/10 18:24:57;;;;;;;4.72;3.75;;;;;;;;;;5023497;28;20531;-86
2023/06/10 18:27:23;;;;;;;7.22;4.25;;;;;;;;;;5013998;28;20038;-85
2023/06/10 18:29:49;;;;;;;4.53;3.92;;;;;;;;;;5026848;28;20048;-85
2023/06/10 18:32:15;;;;;;;5.22;4.20;;;;;;;;;;5012557;28;20049;-85
2023/06/10 18:34:42;;;;;;;5.93;4.13;;;;;;;;;;5017384;28;20035;-86
2023/06/10 18:37:08;;;;;;;6.15;5.13;;;;;;;;;;5032881;28;20045;-84
2023/06/10 18:39:34;;;;;;;5.60;4.20;;;;;;;;;;5014601;28;20049;-84
2023/06/10 18:42:01;;;;;;;4.93;4.38;;;;;;;;;;5035441;28;20053;-83
2023/06/10 18:44:28;;;;;;;6.22;4.30;;;;;;;;;;5017418;28;20116;-83
2023/06/10 18:46:54;;;;;;;6.50;4.57;;;;;;;;;;5034800;28;20033;-85
2023/06/10 18:49:20;;;;;;;6.63;4.45;;;;;;;;;;5030921;28;20041;-85
2023/06/10 18:51:46;;;;;;;5.60;4.70;;;;;;;;;;5032853;28;20072;-84
2023/06/10 18:54:13;;;;;;;4.90;4.03;;;;;;;;;;5030366;28;20041;-84
2023/06/10 18:56:39;;;;;;;6.78;3.83;;;;;;;;;;5029365;28;20407;-83
2023/06/10 18:59:06;;;;;;;6.75;4.47;;;;;;;;;;5031036;28;20578;-83
2023/06/10 19:01:32;;;;;;;5.05;3.63;;;;;;;;;;5023032;28;20067;-82
2023/06/10 19:03:59;;;;;;;5.07;4.57;;;;;;;;;;5030319;28;20030;-83
2023/06/10 19:06:25;;;;;;;10.45;8.15;;;;;;;;;;5034053;28;20030;-82
2023/06/10 19:08:51;;;;;;;13.45;10.57;;;;;;;;;;5028736;28;20009;-83
2023/06/10 19:11:20;;;;;;;28.65;22.65;;;;;;;;;;5047839;28;20030;-82
2023/06/10 19:13:46;;;;;;;31.92;25.80;;;;;;;;;;5027525;28;20037;-83
2023/06/10 21:31:27;;;;;;;7.40;4.95;;;;;;;;;;5400895;23;20055;-85
2023/06/10 21:33:55;;;;;;;7.85;5.05;;;;;;;;;;4928500;29;20032;-82
2023/06/10 21:36:22;;;;;;;8.98;5.18;;;;;;;;;;4938081;29;20518;-82
2023/06/10 21:38:52;;;;;;;8.13;5.60;;;;;;;;;;4943063;28;20052;-81
2023/06/10 21:41:30;;;;;;;11.48;6.30;;;;;;;;;;4923226;29;20051;-83
2023/06/10 21:43:56;;;;;;;6.90;5.35;;;;;;;;;;4926211;29;20110;-83
2023/06/10 21:46:26;;;;;;;9.27;5.05;;;;;;;;;;4921330;29;20043;-80
2023/06/10 21:49:09;;;;;;;7.45;5.65;;;;;;;;;;4924870;29;20035;-81
2023/06/10 21:51:35;;;;;;;9.20;6.10;;;;;;;;;;4918066;29;20030;-81
2023/06/10 21:54:02;;;;;;;9.52;6.10;;;;;;;;;;4928556;29;20044;-81
2023/06/10 21:56:33;;;;;;;9.40;5.90;;;;;;;;;;4919913;29;20024;-80
2023/06/10 21:59:00;;;;;;;7.50;5.80;;;;;;;;;;4917786;29;20100;-81
2023/06/10 22:01:26;;;;;;;7.95;6.00;;;;;;;;;;4936665;29;20028;-81
2023/06/10 22:03:56;;;;;;;8.75;6.45;;;;;;;;;;4917342;29;20035;-80
2023/06/10 22:06:22;;;;;;;7.72;6.38;;;;;;;;;;4925432;29;20060;-81
2023/06/10 22:08:51;;;;;;;10.02;6.28;;;;;;;;;;4916906;29;20808;-80
2023/06/10 22:11:17;;;;;;;8.95;6.18;;;;;;;;;;4921496;29;20028;-80
2023/06/10 22:13:50;;;;;;;9.52;6.25;;;;;;;;;;4924852;29;20033;-83
2023/06/10 22:16:16;;;;;;;9.48;5.80;;;;;;;;;;4921850;29;20032;-81
2023/06/10 22:18:51;;;;;;;9.73;6.07;;;;;;;;;;4920267;29;20021;-82
2023/06/10 22:21:17;;;;;;;7.18;5.72;;;;;;;;;;4921879;29;20058;-80
2023/06/10 22:23:49;;;;;;;7.65;5.53;;;;;;;;;;4923777;29;20028;-80
2023/06/10 22:26:15;;;;;;;6.60;5.32;;;;;;;;;;4924871;29;20032;-80
2023/06/10 22:28:41;;;;;;;8.57;6.20;;;;;;;;;;4919878;29;20132;-80
2023/06/10 22:31:08;;;;;;;8.73;6.15;;;;;;;;;;4920526;29;20078;-82
2023/06/10 22:33:34;;;;;;;9.15;5.97;;;;;;;;;;4915186;29;20024;-80
2023/06/10 22:36:01;;;;;;;8.38;5.55;;;;;;;;;;4908440;29;20025;-80
2023/06/10 22:38:27;;;;;;;8.20;5.60;;;;;;;;;;4923238;29;20407;-82
2023/06/10 22:40:56;;;;;;;7.72;5.82;;;;;;;;;;4917238;29;20609;-81
2023/06/10 22:43:22;;;;;;;8.15;6.10;;;;;;;;;;4922081;29;20044;-80
2023/06/10 22:45:49;;;;;;;7.25;5.00;;;;;;;;;;4927016;29;20152;-79
2023/06/10 22:48:15;;;;;;;10.98;5.63;;;;;;;;;;4920909;29;20131;-79
2023/06/10 22:50:41;;;;;;;7.82;5.30;;;;;;;;;;4924847;29;20032;-80
2023/06/10 22:53:07;;;;;;;7.82;5.63;;;;;;;;;;4915006;29;20053;-80
2023/06/10 22:55:33;;;;;;;6.43;5.38;;;;;;;;;;4920121;29;20033;-79
2023/06/10 22:58:00;;;;;;;6.85;5.45;;;;;;;;;;4917094;29;20040;-79
2023/06/10 23:00:37;;;;;;;7.18;5.63;;;;;;;;;;4920947;29;20077;-79
2023/06/10 23:03:03;;;;;;;7.10;5.70;;;;;;;;;;4915200;29;20028;-79
2023/06/10 23:05:32;;;;;;;8.70;6.00;;;;;;;;;;4912621;29;20043;-79
2023/06/10 23:08:01;;;;;;;6.57;5.35;;;;;;;;;;4920276;29;20024;-81
2023/06/10 23:10:29;;;;;;;11.30;6.20;;;;;;;;;;4910981;29;20040;-80
2023/06/10 23:12:55;;;;;;;6.57;5.30;;;;;;;;;;4924477;29;20080;-80
2023/06/10 23:15:22;;;;;;;7.15;5.45;;;;;;;;;;4920019;29;20024;-80
2023/06/10 23:17:48;;;;;;;7.85;5.32;;;;;;;;;;4919937;29;20051;-80
2023/06/10 23:20:22;;;;;;;8.88;5.28;;;;;;;;;;4923590;29;20032;-81
2023/06/10 23:22:51;;;;;;;7.43;5.20;;;;;;;;;;4916855;29;20028;-81
2023/06/10 23:25:22;;;;;;;9.70;5.53;;;;;;;;;;4918992;29;20041;-81
2023/06/10 23:27:48;;;;;;;6.95;4.80;;;;;;;;;;4920772;29;20036;-80
2023/06/10 23:30:21;;;;;;;7.03;4.80;;;;;;;;;;4924894;29;20036;-83
2023/06/10 23:32:47;;;;;;;5.88;5.28;;;;;;;;;;4921393;29;20052;-81
2023/06/10 23:35:24;;;;;;;6.88;5.20;;;;;;;;;;4924334;29;20025;-81
2023/06/10 23:37:50;;;;;;;7.18;4.93;;;;;;;;;;4925200;29;20152;-80
2023/06/10 23:40:26;;;;;;;9.93;5.20;;;;;;;;;;4917765;29;20043;-80
2023/06/10 23:42:52;;;;;;;6.40;5.05;;;;;;;;;;4934583;29;20024;-83
2023/06/10 23:45:24;;;;;;;7.20;5.30;;;;;;;;;;4921009;29;20488;-80
2023/06/10 23:47:51;;;;;;;7.50;5.20;;;;;;;;;;4916211;29;20058;-80
2023/06/10 23:50:17;;;;;;;7.80;5.50;;;;;;;;;;4937100;29;20051;-82
2023/06/10 23:52:43;;;;;;;5.97;5.22;;;;;;;;;;4925603;29;20039;-80
2023/06/10 23:55:12;;;;;;;5.95;5.13;;;;;;;;;;4934077;29;20020;-81
2023/06/10 23:57:41;;;;;;;7.05;5.68;;;;;;;;;;4934458;29;20033;-81
